Time;durP1;ratioP1;P1;durP2;ratioP2;P2;SDS_P1;SDS_P2;PMS_P1;PMS_P2;Temp;Humidity;BMP_temperature;BMP_pressure;BME280_temperature;BME280_humidity;BME280_pressure;Samples;Min_cycle;Max_cycle;Signal;HPM_P1;HPM_P2
2022/11/17 00:01:45;;;;;;;1999.90;999.90;;;;;;;3.73;100.00;92552.31;4977829;28;20191;-63
2022/11/17 00:04:10;;;;;;;1999.90;999.90;;;;;;;3.71;100.00;92547.34;4978264;28;20195;-62
2022/11/17 00:06:35;;;;;;;1999.90;999.90;;;;;;;3.68;100.00;92542.06;4978250;28;20271;-63
2022/11/17 00:09:01;;;;;;;1999.90;999.90;;;;;;;3.71;100.00;92547.34;4978238;28;20274;-62
2022/11/17 00:14:31;;;;;;;1999.90;999.90;;;;;;;3.74;100.00;92556.50;4978004;28;20208;-63
2022/11/17 00:14:32;;;;;;;1999.90;999.90;;;;;;;3.76;100.00;92537.94;4995582;28;20595;-67
2022/11/17 00:17:05;;;;;;;1999.90;999.90;;;;;;;3.81;100.00;92540.09;4995050;28;20249;-63
2022/11/17 00:22:31;;;;;;;1999.90;999.90;;;;;;;3.83;100.00;92543.16;4962634;28;20184;-63
2022/11/17 00:24:56;;;;;;;1999.90;999.90;;;;;;;3.82;100.00;92530.84;4977881;28;20285;-63
2022/11/17 00:27:22;;;;;;;1999.90;999.90;;;;;;;3.83;100.00;92535.81;4995300;28;20227;-63
2022/11/17 00:29:47;;;;;;;1999.90;999.90;;;;;;;3.83;100.00;92526.97;4978298;28;20179;-64
2022/11/17 00:34:58;;;;;;;1999.90;999.90;;;;;;;3.90;100.00;92527.50;4995627;28;20205;-66
2022/11/17 00:37:24;;;;;;;1999.90;999.90;;;;;;;3.94;100.00;92517.38;4978787;28;20167;-66
2022/11/17 00:39:50;;;;;;;1999.90;999.90;;;;;;;3.96;100.00;92516.94;4977910;28;20196;-67
2022/11/17 00:42:15;;;;;;;1999.90;999.90;;;;;;;3.93;100.00;92517.78;4977327;28;20219;-67
2022/11/17 00:44:40;;;;;;;1999.90;999.90;;;;;;;3.98;100.00;92507.22;4977751;28;20191;-67
2022/11/17 00:47:06;;;;;;;1999.90;999.90;;;;;;;4.03;100.00;92495.09;4977763;28;20528;-66
2022/11/17 00:49:31;;;;;;;1999.90;999.90;;;;;;;4.05;100.00;92501.59;4977916;28;20168;-63
2022/11/17 00:51:56;;;;;;;1999.90;999.90;;;;;;;4.08;100.00;92489.91;4977796;28;20168;-63
2022/11/17 00:54:22;;;;;;;1999.90;999.90;;;;;;;4.10;100.00;92502.97;4977442;28;20231;-62
2022/11/17 00:56:48;;;;;;;1999.90;999.90;;;;;;;4.15;100.00;92494.34;4977452;28;20179;-62
2022/11/17 00:59:13;;;;;;;1999.90;999.90;;;;;;;4.17;100.00;92495.44;4978152;28;20207;-62
2022/11/17 01:01:39;;;;;;;1999.90;999.90;;;;;;;4.23;100.00;92490.25;4977433;28;20180;-63
2022/11/17 01:04:06;;;;;;;1999.90;999.90;;;;;;;4.27;100.00;92496.28;4977598;28;20230;-63
2022/11/17 01:06:34;;;;;;;1999.90;999.90;;;;;;;4.28;100.00;92492.38;4977523;28;20187;-62
2022/11/17 01:09:02;;;;;;;1999.90;999.90;;;;;;;4.31;100.00;92491.53;4977461;28;20183;-71
2022/11/17 01:11:28;;;;;;;1999.90;999.90;;;;;;;4.32;100.00;92490.31;4977741;28;20172;-65
2022/11/17 01:13:57;;;;;;;1999.90;999.90;;;;;;;4.37;100.00;92484.38;4978883;28;20168;-65
2022/11/17 01:16:22;;;;;;;1999.90;999.90;;;;;;;4.40;100.00;92494.34;4981349;28;20168;-66
2022/11/17 01:18:49;;;;;;;1999.90;999.90;;;;;;;4.42;100.00;92491.94;4981313;28;20192;-67
2022/11/17 01:21:24;;;;;;;1999.90;999.90;;;;;;;4.41;100.00;92495.84;4981777;28;20176;-67
2022/11/17 01:23:51;;;;;;;1999.90;999.90;;;;;;;4.38;100.00;92491.28;4981753;28;20172;-67
2022/11/17 01:26:26;;;;;;;1999.90;999.90;;;;;;;4.33;100.00;92498.00;4981275;28;20180;-67
2022/11/17 01:28:52;;;;;;;1999.90;999.90;;;;;;;4.35;100.00;92511.06;4981869;28;20167;-63
2022/11/17 01:31:22;;;;;;;1999.90;999.90;;;;;;;4.36;100.00;92505.22;4980146;28;20238;-70
2022/11/17 01:33:48;;;;;;;1999.90;999.90;;;;;;;4.43;100.00;92510.41;4981201;28;20168;-71
2022/11/17 01:36:16;;;;;;;1999.90;999.90;;;;;;;4.46;100.00;92514.19;4981092;28;20235;-69
2022/11/17 01:38:42;;;;;;;1999.90;999.90;;;;;;;4.49;100.00;92513.31;4980915;28;20227;-70
2022/11/17 01:41:13;;;;;;;1999.90;999.90;;;;;;;4.52;100.00;92528.66;4980557;28;20208;-70
2022/11/17 01:43:43;;;;;;;1999.90;999.90;;;;;;;4.56;100.00;92532.00;4981538;28;20168;-69
2022/11/17 01:46:14;;;;;;;1999.90;999.90;;;;;;;4.57;100.00;92542.38;4980519;28;20270;-64
2022/11/17 01:48:43;;;;;;;1999.90;999.90;;;;;;;4.60;100.00;92529.94;4980975;28;20259;-70
2022/11/17 01:51:11;;;;;;;1999.90;999.90;;;;;;;4.66;100.00;92528.22;4980676;28;20204;-70
2022/11/17 01:53:37;;;;;;;1999.90;999.90;;;;;;;4.63;100.00;92529.06;4980199;28;20254;-71
2022/11/17 01:56:09;;;;;;;1999.90;999.90;;;;;;;4.63;100.00;92529.06;4980979;28;20211;-71
2022/11/17 01:58:44;;;;;;;1999.90;999.90;;;;;;;4.66;100.00;92523.53;4981242;28;20208;-71
2022/11/17 02:01:09;;;;;;;1999.90;999.90;;;;;;;4.68;100.00;92525.81;4981041;28;20171;-71
2022/11/17 02:03:36;;;;;;;1999.90;999.90;;;;;;;4.70;100.00;92512.63;4980905;28;20187;-63
2022/11/17 02:06:09;;;;;;;1999.90;999.90;;;;;;;4.71;100.00;92514.13;4980415;28;20215;-63
2022/11/17 02:08:37;;;;;;;1999.90;999.90;;;;;;;4.67;100.00;92511.56;4980178;28;20235;-63
2022/11/17 02:11:07;;;;;;;1999.90;999.90;;;;;;;4.69;100.00;92516.50;4979987;28;20180;-64
2022/11/17 02:13:34;;;;;;;1999.90;999.90;;;;;;;4.63;100.00;92529.81;4980365;28;20210;-64
2022/11/17 02:15:59;;;;;;;1999.90;999.90;;;;;;;4.75;100.00;92536.38;4980309;28;20190;-64
2022/11/17 02:18:25;;;;;;;1999.90;999.90;;;;;;;4.82;100.00;92525.34;4980909;28;20549;-64
2022/11/17 02:21:31;;;;;;;1999.90;999.90;;;;;;;4.87;100.00;92524.78;4979906;28;20177;-63
2022/11/17 02:24:17;;;;;;;1999.90;999.90;;;;;;;4.84;100.00;92517.56;4980501;28;20188;-64
2022/11/17 02:27:23;;;;;;;1999.90;999.90;;;;;;;4.92;100.00;92518.84;4979849;28;20184;-61
2022/11/17 02:29:57;;;;;;;1999.90;999.90;;;;;;;4.98;100.00;92523.25;4979687;28;20219;-61
2022/11/17 02:32:37;;;;;;;1999.90;999.90;;;;;;;4.91;100.00;92528.88;4980575;28;20187;-61
2022/11/17 02:35:09;;;;;;;1999.90;999.90;;;;;;;4.92;100.00;92521.53;4980066;28;20270;-61
2022/11/17 02:37:57;;;;;;;1999.90;999.90;;;;;;;4.81;100.00;92529.25;4979758;28;20189;-61
2022/11/17 02:40:41;;;;;;;1999.90;999.90;;;;;;;4.91;100.00;92511.91;4980225;28;20188;-64
2022/11/17 02:46:13;;;;;;;1999.90;999.90;;;;;;;4.90;100.00;92535.50;4996805;28;20171;-61
2022/11/17 02:48:43;;;;;;;1999.90;999.90;;;;;;;4.97;100.00;92545.31;4980090;28;20212;-60
2022/11/17 02:51:15;;;;;;;1999.90;999.90;;;;;;;5.03;100.00;92540.88;4979975;28;20176;-61
2022/11/17 02:53:41;;;;;;;1999.90;999.90;;;;;;;5.09;100.00;92533.69;4979880;28;20228;-60
2022/11/17 02:56:07;;;;;;;1999.90;999.90;;;;;;;5.14;100.00;92525.03;4979177;28;20227;-61
2022/11/17 02:58:32;;;;;;;1999.90;999.90;;;;;;;5.13;100.00;92534.34;4979516;28;20645;-66
2022/11/17 03:01:23;;;;;;;1999.90;999.90;;;;;;;5.17;100.00;92526.84;4979428;28;20185;-63
2022/11/17 03:04:13;;;;;;;1999.90;999.90;;;;;;;5.09;100.00;92534.44;4979383;28;20303;-65
2022/11/17 03:06:55;;;;;;;1999.90;999.90;;;;;;;5.13;100.00;92537.03;4996425;28;20180;-64
2022/11/17 03:09:48;;;;;;;1999.90;999.90;;;;;;;5.16;100.00;92545.03;4979821;28;20223;-64
2022/11/17 03:12:28;;;;;;;1999.90;999.90;;;;;;;5.18;100.00;92536.47;4979908;28;20207;-65
2022/11/17 03:15:04;;;;;;;1999.90;999.90;;;;;;;5.21;100.00;92536.34;4979265;28;20172;-64
2022/11/17 03:17:51;;;;;;;1999.90;999.90;;;;;;;5.25;100.00;92520.00;4979377;28;20169;-63
2022/11/17 03:20:30;;;;;;;1999.90;999.90;;;;;;;5.25;100.00;92525.41;4979383;28;20256;-64
2022/11/17 03:23:04;;;;;;;1999.90;999.90;;;;;;;5.25;100.00;92522.72;4979675;28;20267;-65
2022/11/17 03:25:33;;;;;;;1999.90;999.90;;;;;;;5.16;100.00;92517.22;4978744;28;20177;-65
2022/11/17 03:28:04;;;;;;;1999.90;999.90;;;;;;;5.18;100.00;92522.94;4979053;28;20194;-65
2022/11/17 03:30:31;;;;;;;1999.90;999.90;;;;;;;5.10;100.00;92522.44;4979557;28;20169;-65
2022/11/17 03:33:05;;;;;;;1999.90;999.90;;;;;;;5.08;100.00;92524.84;4979303;28;20181;-65
2022/11/17 03:35:34;;;;;;;1999.90;999.90;;;;;;;5.03;100.00;92521.94;4979364;28;20191;-67
2022/11/17 03:38:07;;;;;;;1999.90;999.90;;;;;;;4.94;100.00;92532.66;4978341;28;20205;-64
2022/11/17 03:40:34;;;;;;;1999.90;999.90;;;;;;;4.95;100.00;92523.38;4979228;28;20168;-64
2022/11/17 03:43:04;;;;;;;1999.90;999.90;;;;;;;4.95;100.00;92524.09;4978323;28;20327;-64
2022/11/17 03:45:37;;;;;;;1999.90;999.90;;;;;;;4.98;100.00;92515.13;4979239;28;20164;-64
2022/11/17 03:48:13;;;;;;;1999.90;999.90;;;;;;;5.00;100.00;92514.69;4978815;28;20175;-64
2022/11/17 03:50:50;;;;;;;1999.90;999.90;;;;;;;5.02;100.00;92523.09;4979282;28;20168;-64
2022/11/17 03:53:16;;;;;;;1999.90;999.90;;;;;;;5.05;100.00;92516.81;4995851;28;20160;-62
2022/11/17 03:56:13;;;;;;;1999.90;999.90;;;;;;;5.07;100.00;92506.34;4978528;28;20184;-67
2022/11/17 03:58:49;;;;;;;1999.90;999.90;;;;;;;5.11;100.00;92496.91;4995568;28;20234;-62
2022/11/17 04:01:15;;;;;;;1999.90;999.90;;;;;;;5.10;100.00;92486.53;4979027;28;20641;-62
2022/11/17 04:03:40;;;;;;;1999.90;999.90;;;;;;;5.13;100.00;92485.66;4978270;28;20192;-62
2022/11/17 04:06:06;;;;;;;1999.90;999.90;;;;;;;5.11;100.00;92477.22;4978411;28;20176;-62
2022/11/17 04:08:31;;;;;;;1999.90;999.90;;;;;;;5.12;100.00;92463.25;4978060;28;20181;-62
2022/11/17 04:16:25;;;;;;;1999.90;999.90;;;;;;;5.15;100.00;92450.81;4995785;28;20187;-63
2022/11/17 04:18:50;;;;;;;1999.90;999.90;;;;;;;5.19;100.00;92457.59;4978537;28;20194;-64
2022/11/17 04:21:16;;;;;;;1999.90;999.90;;;;;;;5.24;100.00;92448.19;4978228;28;20648;-63
2022/11/17 04:23:41;;;;;;;1999.90;999.90;;;;;;;5.26;100.00;92441.13;4978319;28;20168;-63
2022/11/17 04:28:53;;;;;;;1999.90;999.90;;;;;;;5.31;100.00;92453.31;4995530;28;20174;-63
2022/11/17 04:31:24;;;;;;;1999.90;999.90;;;;;;;5.39;100.00;92451.88;4978024;28;20187;-65
2022/11/17 04:33:52;;;;;;;1999.90;999.90;;;;;;;5.43;100.00;92455.19;4977922;28;20187;-62
2022/11/17 04:36:26;;;;;;;1999.90;999.90;;;;;;;5.47;100.00;92455.81;4977947;28;20176;-62
2022/11/17 04:38:53;;;;;;;1999.90;999.90;;;;;;;5.52;100.00;92441.72;4977971;28;20193;-62
2022/11/17 04:44:07;;;;;;;1999.90;999.90;;;;;;;5.58;100.00;92467.00;4995488;28;20665;-66
2022/11/17 04:46:34;;;;;;;1999.90;999.90;;;;;;;5.62;100.00;92473.03;4977957;28;20177;-62
2022/11/17 04:49:00;;;;;;;1999.90;999.90;;;;;;;5.62;100.00;92464.91;4981513;28;20176;-62
2022/11/17 04:51:27;;;;;;;1999.90;999.90;;;;;;;5.64;100.00;92474.09;4999161;28;20185;-64
2022/11/17 04:53:53;;;;;;;1999.90;999.90;;;;;;;5.61;100.00;92483.09;4981357;28;20303;-63
2022/11/17 04:56:20;;;;;;;1999.90;999.90;;;;;;;5.60;100.00;92487.00;4982155;28;20164;-63
2022/11/17 04:58:45;;;;;;;1999.90;999.90;;;;;;;5.59;100.00;92495.56;4981753;28;20201;-63
2022/11/17 05:01:11;;;;;;;1999.90;999.90;;;;;;;5.59;100.00;92506.41;4981214;28;20272;-65
2022/11/17 05:03:42;;;;;;;1999.90;999.90;;;;;;;5.55;100.00;92520.06;4981698;28;20223;-63
2022/11/17 05:06:14;;;;;;;1999.90;999.90;;;;;;;5.57;100.00;92519.63;4981489;28;20223;-63
2022/11/17 05:08:40;;;;;;;1999.90;999.90;;;;;;;5.59;100.00;92517.22;4982129;28;20168;-64
2022/11/17 05:13:51;;;;;;;1999.90;999.90;;;;;;;5.57;100.00;92535.88;4998922;28;20168;-68
2022/11/17 05:19:03;;;;;;;1999.90;999.90;;;;;;;5.64;100.00;92562.66;4998715;28;20207;-68
2022/11/17 05:21:29;;;;;;;1999.90;999.90;;;;;;;5.61;100.00;92577.81;4981860;28;20177;-71
2022/11/17 05:23:54;;;;;;;1999.90;999.90;;;;;;;5.64;100.00;92584.31;4981272;28;20269;-71
2022/11/17 05:26:29;;;;;;;1999.90;999.90;;;;;;;5.70;100.00;92601.50;4998035;28;20257;-63
2022/11/17 05:28:56;;;;;;;1999.90;999.90;;;;;;;5.80;100.00;92613.91;4981782;28;20198;-62
2022/11/17 05:31:23;;;;;;;1999.90;999.90;;;;;;;5.84;100.00;92630.81;4981772;28;20187;-61
2022/11/17 05:33:49;;;;;;;1999.90;999.90;;;;;;;5.88;100.00;92669.34;4981607;28;20234;-64
2022/11/17 05:36:15;;;;;;;1999.90;999.90;;;;;;;5.93;100.00;92683.09;4980829;28;20189;-63
2022/11/17 05:38:40;;;;;;;1999.90;999.90;;;;;;;5.97;100.00;92704.63;4980799;28;20217;-62
2022/11/17 05:41:06;;;;;;;1999.90;999.90;;;;;;;6.04;100.00;92728.75;4980885;28;20216;-62
2022/11/17 05:43:34;;;;;;;1999.90;999.90;;;;;;;6.09;100.00;92758.00;4981346;28;20227;-61
2022/11/17 05:46:00;;;;;;;1999.90;999.90;;;;;;;6.12;100.00;92770.66;4981671;28;20181;-60
2022/11/17 05:48:25;;;;;;;1999.90;999.90;;;;;;;6.13;100.00;92780.31;4980697;28;20182;-63
2022/11/17 05:50:52;;;;;;;1999.90;999.90;;;;;;;6.18;100.00;92801.41;4980690;28;20178;-66
2022/11/17 05:53:18;;;;;;;1999.90;999.90;;;;;;;6.19;100.00;92778.53;4980478;28;20179;-65
2022/11/17 05:55:43;;;;;;;1999.90;999.90;;;;;;;6.18;100.00;92790.56;4980716;28;20329;-64
2022/11/17 05:58:15;;;;;;;1999.90;999.90;;;;;;;6.20;100.00;92812.56;4980904;28;20655;-63
2022/11/17 06:00:41;;;;;;;1999.90;999.90;;;;;;;6.22;100.00;92802.03;4980100;28;20179;-63
2022/11/17 06:03:22;;;;;;;1999.90;999.90;;;;;;;6.25;100.00;92799.22;4980404;28;20192;-61
2022/11/17 06:05:48;;;;;;;1999.90;999.90;;;;;;;6.28;100.00;92803.00;4980399;28;20222;-71
2022/11/17 06:08:13;;;;;;;1999.90;999.90;;;;;;;6.26;100.00;92813.50;4980148;28;20272;-73
2022/11/17 06:10:39;;;;;;;1999.90;999.90;;;;;;;6.27;100.00;92831.31;4980302;28;20188;-72
2022/11/17 06:13:04;;;;;;;1999.90;999.90;;;;;;;6.29;100.00;92829.66;4980261;28;20180;-75
2022/11/17 06:15:30;;;;;;;1999.90;999.90;;;;;;;6.29;100.00;92826.19;4980695;28;20174;-75
2022/11/17 06:17:58;;;;;;;1999.90;999.90;;;;;;;6.29;100.00;92818.06;4980708;28;20207;-77
2022/11/17 06:20:27;;;;;;;1999.90;999.90;;;;;;;6.35;100.00;92810.91;4980383;28;20212;-77
2022/11/17 06:22:59;;;;;;;1999.90;999.90;;;;;;;6.38;100.00;92804.59;4979694;28;20184;-63
2022/11/17 06:25:26;;;;;;;1999.90;999.90;;;;;;;6.39;100.00;92785.19;4979768;28;20174;-62
2022/11/17 06:27:52;;;;;;;1999.90;999.90;;;;;;;6.37;100.00;92778.69;4979605;28;20179;-63
2022/11/17 06:30:18;;;;;;;1999.90;999.90;;;;;;;6.41;100.00;92784.75;4979641;28;20178;-62
2022/11/17 06:32:44;;;;;;;1999.90;999.90;;;;;;;6.39;100.00;92762.75;4979796;28;20229;-61
2022/11/17 06:35:12;;;;;;;1999.90;999.90;;;;;;;6.36;100.00;92752.78;4979746;28;20538;-62
2022/11/17 06:37:37;;;;;;;1999.90;999.90;;;;;;;6.36;100.00;92731.09;4979532;28;20178;-62
2022/11/17 06:40:03;;;;;;;1999.90;999.90;;;;;;;6.38;100.00;92707.03;4980299;28;20230;-63
2022/11/17 06:45:13;;;;;;;1999.90;999.90;;;;;;;6.38;100.00;92685.34;4997289;28;20170;-63
2022/11/17 06:47:39;;;;;;;1999.90;999.90;;;;;;;6.35;100.00;92680.81;4980217;28;20181;-63
2022/11/17 06:50:05;;;;;;;1999.90;999.90;;;;;;;6.30;100.00;92678.66;4979516;28;20182;-63
2022/11/17 06:52:30;;;;;;;1999.90;999.90;;;;;;;6.37;100.00;92678.41;4979506;28;20194;-63
2022/11/17 06:54:56;;;;;;;1999.90;999.90;;;;;;;6.37;100.00;92656.72;4979154;28;20222;-62
2022/11/17 06:57:21;;;;;;;1999.90;999.90;;;;;;;6.41;100.00;92619.44;4979623;28;20246;-60
2022/11/17 06:59:46;;;;;;;1999.90;999.90;;;;;;;6.43;100.00;92606.19;4979443;28;20209;-63
2022/11/17 07:02:12;;;;;;;1999.90;999.90;;;;;;;6.47;100.00;92609.50;4978971;28;20173;-60
2022/11/17 07:04:37;;;;;;;1999.90;999.90;;;;;;;6.51;100.00;92612.84;4979208;28;20244;-60
2022/11/17 07:07:02;;;;;;;1999.90;999.90;;;;;;;6.57;100.00;92621.91;4979183;28;20208;-60
2022/11/17 07:09:28;;;;;;;1999.90;999.90;;;;;;;6.65;100.00;92628.56;4979562;28;20200;-60
2022/11/17 07:11:53;;;;;;;1999.90;999.90;;;;;;;6.68;100.00;92606.00;4978607;28;20182;-60
2022/11/17 07:14:18;;;;;;;1999.90;999.90;;;;;;;6.68;100.00;92595.16;4978943;28;20229;-59
2022/11/17 07:16:44;;;;;;;1999.90;999.90;;;;;;;6.65;100.00;92609.59;4978945;28;20196;-62
2022/11/17 07:19:10;;;;;;;1999.90;999.90;;;;;;;6.70;100.00;92617.13;4979331;28;20219;-68
2022/11/17 07:21:35;;;;;;;1999.90;999.90;;;;;;;6.75;100.00;92613.84;4978542;28;20186;-68
2022/11/17 07:24:02;;;;;;;1999.90;999.90;;;;;;;6.74;100.00;92637.50;4978801;28;20206;-68
2022/11/17 07:26:29;;;;;;;1999.90;999.90;;;;;;;6.81;100.00;92633.75;4979002;28;20233;-67
2022/11/17 07:28:54;;;;;;;1999.90;999.90;;;;;;;6.88;100.00;92619.16;4978413;28;20180;-68
2022/11/17 07:31:20;;;;;;;1999.90;999.90;;;;;;;6.93;100.00;92601.09;4978745;28;20173;-67
2022/11/17 07:33:45;;;;;;;1999.90;999.90;;;;;;;6.96;100.00;92599.47;4978972;28;20178;-67
2022/11/17 07:36:13;;;;;;;1999.90;999.90;;;;;;;7.00;100.00;92600.06;4978773;28;20194;-64
2022/11/17 07:38:39;;;;;;;1999.90;999.90;;;;;;;7.00;100.00;92600.06;4978749;28;20199;-65
2022/11/17 07:41:06;;;;;;;1999.90;999.90;;;;;;;7.01;100.00;92607.00;4978960;28;20236;-65
2022/11/17 07:43:32;;;;;;;1999.90;999.90;;;;;;;7.04;100.00;92605.34;4979012;28;20172;-64
2022/11/17 07:46:01;;;;;;;1999.90;999.90;;;;;;;7.09;100.00;92608.22;4978893;28;20245;-64
2022/11/17 07:48:27;;;;;;;1999.90;999.90;;;;;;;7.17;100.00;92595.88;4978370;28;20236;-65
2022/11/17 07:50:52;;;;;;;1999.90;999.90;;;;;;;7.15;100.00;92590.16;4978568;28;20175;-65
2022/11/17 07:53:17;;;;;;;1999.90;999.90;;;;;;;7.13;100.00;92559.97;4978414;28;20175;-61
2022/11/17 07:55:43;;;;;;;1999.90;999.90;;;;;;;7.17;100.00;92549.00;4978518;28;20176;-60
2022/11/17 07:58:08;;;;;;;1999.90;999.90;;;;;;;7.15;100.00;92551.41;4978751;28;20632;-63
2022/11/17 08:00:33;;;;;;;1999.90;999.90;;;;;;;7.18;100.00;92551.25;4978469;28;20205;-63
2022/11/17 08:03:03;;;;;;;1999.90;999.90;;;;;;;7.26;100.00;92547.03;4978397;28;20200;-63
2022/11/17 08:05:31;;;;;;;1999.90;999.90;;;;;;;7.31;100.00;92532.09;4978353;28;20206;-64
2022/11/17 08:07:58;;;;;;;1999.90;999.90;;;;;;;7.30;100.00;92525.94;4978339;28;20185;-64
2022/11/17 08:10:25;;;;;;;1999.90;999.90;;;;;;;7.32;100.00;92533.63;4978009;28;20186;-64
2022/11/17 08:12:52;;;;;;;1999.90;999.90;;;;;;;7.41;100.00;92525.47;4978750;28;20199;-63
2022/11/17 08:15:17;;;;;;;1999.90;999.90;;;;;;;7.48;100.00;92530.59;4978097;28;20260;-67
2022/11/17 08:17:43;;;;;;;1999.90;999.90;;;;;;;7.49;100.00;92542.97;4978217;28;20270;-67
2022/11/17 08:20:11;;;;;;;1999.90;999.90;;;;;;;7.56;100.00;92543.41;4978459;28;20195;-67
2022/11/17 08:22:36;;;;;;;1999.90;999.90;;;;;;;7.63;100.00;92531.50;4977870;28;20183;-68
2022/11/17 08:25:02;;;;;;;1999.90;999.90;;;;;;;7.65;100.00;92542.66;4978037;28;20171;-67
2022/11/17 08:27:27;;;;;;;1999.90;999.90;;;;;;;7.70;100.00;92548.25;4978988;28;20265;-66
2022/11/17 08:29:52;;;;;;;1999.90;999.90;;;;;;;7.72;100.00;92562.09;4978190;28;20201;-61
2022/11/17 08:32:18;;;;;;;1999.90;999.90;;;;;;;7.77;100.00;92566.94;4978324;28;20179;-64
2022/11/17 08:34:43;;;;;;;1999.90;999.90;;;;;;;7.77;100.00;92553.38;4995165;28;20170;-66
2022/11/17 08:37:08;;;;;;;1999.90;999.90;;;;;;;7.82;100.00;92571.00;4978117;28;20178;-66
2022/11/17 08:39:34;;;;;;;1999.90;999.90;;;;;;;7.86;100.00;92555.31;4977747;28;20199;-66
2022/11/17 08:41:59;;;;;;;1999.90;999.90;;;;;;;7.95;100.00;92541.72;4977577;28;20184;-66
2022/11/17 08:44:24;;;;;;;1999.90;999.90;;;;;;;8.02;100.00;92525.09;4978186;28;20182;-66
2022/11/17 08:46:50;;;;;;;1999.90;999.90;;;;;;;8.15;100.00;92499.22;4977773;28;20183;-66
2022/11/17 08:49:15;;;;;;;1999.90;999.90;;;;;;;8.21;100.00;92483.06;4977822;28;20207;-60
2022/11/17 08:51:40;;;;;;;1999.90;999.90;;;;;;;8.26;100.00;92475.06;4978466;28;20202;-60
2022/11/17 08:54:06;;;;;;;1999.90;999.90;;;;;;;8.55;100.00;92456.19;4974221;28;20224;-60
2022/11/17 08:56:31;;;;;;;1999.90;999.90;;;;;;;8.85;100.00;92460.53;4974800;28;20180;-60
2022/11/17 08:58:57;;;;;;;1999.90;999.90;;;;;;;9.13;100.00;92485.56;4974586;28;20200;-60
2022/11/17 09:01:22;;;;;;;1999.90;999.90;;;;;;;9.94;100.00;92488.34;4975060;28;20181;-60
2022/11/17 09:03:47;;;;;;;1999.90;999.90;;;;;;;11.00;100.00;92578.09;4974051;28;20200;-60
2022/11/17 09:06:15;;;;;;;1999.90;999.90;;;;;;;11.96;100.00;92714.38;4974752;28;20619;-66
2022/11/17 09:08:40;;;;;;;1999.90;999.90;;;;;;;13.11;100.00;92901.28;4974389;28;20268;-61
2022/11/17 09:11:08;;;;;;;1999.90;999.90;;;;;;;13.98;100.00;93125.75;4975009;28;20212;-61
2022/11/17 09:13:34;;;;;;;1999.90;999.90;;;;;;;14.31;100.00;93365.06;4974142;28;20180;-61
2022/11/17 09:16:02;;;;;;;1999.90;999.90;;;;;;;14.42;100.00;93479.84;4974955;28;20177;-61
2022/11/17 09:18:27;;;;;;;1999.90;999.90;;;;;;;13.80;100.00;93539.53;4974738;28;20632;-62
2022/11/17 09:21:01;;;;;;;1999.90;999.90;;;;;;;13.13;100.00;93556.56;4975045;28;20176;-62
2022/11/17 09:23:28;;;;;;;1999.90;999.90;;;;;;;12.71;100.00;93545.56;4974009;28;20208;-62
2022/11/17 09:25:54;;;;;;;1999.90;999.90;;;;;;;12.19;100.00;93553.44;4974309;28;20180;-68
2022/11/17 09:28:19;;;;;;;1999.90;999.90;;;;;;;12.65;100.00;93544.69;4974211;28;20243;-59
2022/11/17 09:30:44;;;;;;;1999.90;999.90;;;;;;;12.67;100.00;93549.69;4974133;28;20185;-59
2022/11/17 09:33:10;;;;;;;1999.90;999.90;;;;;;;12.48;100.00;93542.75;4974459;28;20180;-59
2022/11/17 09:35:35;;;;;;;1999.90;999.90;;;;;;;12.45;100.00;93538.97;4976768;28;20176;-60
2022/11/17 09:38:00;;;;;;;1999.90;999.90;;;;;;;13.00;100.00;93528.59;4977593;28;20177;-60
2022/11/17 09:40:26;;;;;;;1999.90;999.90;;;;;;;13.91;100.00;93526.78;4978109;28;20211;-60
2022/11/17 09:42:52;;;;;;;1999.90;999.90;;;;;;;14.60;100.00;93557.28;4977318;28;20284;-60
2022/11/17 09:45:32;;;;;;;1999.90;999.90;;;;;;;15.08;100.00;93579.84;4977637;28;20184;-63
2022/11/17 09:48:12;;;;;;;1999.90;999.90;;;;;;;15.44;100.00;93595.94;4978218;28;20177;-66
2022/11/17 09:50:39;;;;;;;1999.90;999.90;;;;;;;15.63;100.00;93597.94;4977511;28;20228;-67
2022/11/17 09:53:23;;;;;;;1999.90;999.90;;;;;;;15.41;100.00;93608.63;4977559;28;20244;-67
2022/11/17 09:55:54;;;;;;;1999.90;999.90;;;;;;;15.52;100.00;93619.81;4977991;28;20185;-67
2022/11/17 09:58:26;;;;;;;1999.90;999.90;;;;;;;15.14;100.00;93606.19;4977863;28;20169;-67
2022/11/17 10:00:52;;;;;;;1999.90;999.90;;;;;;;14.34;100.00;93611.25;4977296;28;20173;-67
2022/11/17 10:03:20;;;;;;;1999.90;999.90;;;;;;;13.83;100.00;93605.22;4977837;28;20177;-61
2022/11/17 10:05:47;;;;;;;1999.90;999.90;;;;;;;13.42;100.00;93592.34;4977020;28;20185;-62
2022/11/17 10:08:20;;;;;;;1999.90;999.90;;;;;;;13.43;100.00;93577.41;4977157;28;20180;-61
2022/11/17 10:10:49;;;;;;;1999.90;999.90;;;;;;;13.80;100.00;93578.69;4977578;28;20176;-62
2022/11/17 10:13:27;;;;;;;1999.90;999.90;;;;;;;14.01;100.00;93577.63;4978065;28;20184;-61
2022/11/17 10:16:13;;;;;;;1999.90;999.90;;;;;;;13.76;100.00;93589.09;4977620;28;20630;-62
2022/11/17 10:18:38;;;;;;;1999.90;999.90;;;;;;;13.98;100.00;93580.56;4977592;28;20650;-62
2022/11/17 10:21:06;;;;;;;1999.90;999.90;;;;;;;14.36;100.00;93583.31;4977467;28;20184;-66
2022/11/17 10:23:34;;;;;;;1999.90;999.90;;;;;;;14.52;100.00;93580.88;4976412;28;20180;-74
2022/11/17 10:26:00;;;;;;;1999.90;999.90;;;;;;;14.31;100.00;93589.47;4976867;28;20184;-75
2022/11/17 10:28:31;;;;;;;1999.90;999.90;;;;;;;14.20;100.00;93584.50;4976985;28;20186;-74
2022/11/17 10:30:59;;;;;;;1999.90;999.90;;;;;;;14.05;100.00;93605.66;4977249;28;20653;-74
2022/11/17 10:33:51;;;;;;;1999.90;999.90;;;;;;;13.92;100.00;93596.16;4976603;28;20185;-75
2022/11/17 10:36:24;;;;;;;1999.90;999.90;;;;;;;13.75;100.00;93593.06;4974163;28;20188;-75
2022/11/17 10:38:54;;;;;;;1999.90;999.90;;;;;;;13.57;100.00;93604.16;4976403;28;20284;-65
2022/11/17 10:41:24;;;;;;;1999.90;999.90;;;;;;;13.27;100.00;93586.78;4977300;28;20180;-67
2022/11/17 10:43:59;;;;;;;1999.90;999.90;;;;;;;13.28;100.00;93573.84;4977099;28;20250;-73
2022/11/17 10:46:24;;;;;;;1999.90;999.90;;;;;;;13.41;100.00;93568.13;4976953;28;20521;-72
2022/11/17 10:48:56;;;;;;;1999.90;999.90;;;;;;;13.32;100.00;93562.72;4976763;28;20188;-73
2022/11/17 10:51:25;;;;;;;1999.90;999.90;;;;;;;13.32;100.00;93557.97;4976818;28;20169;-73
2022/11/17 10:54:14;;;;;;;1999.90;999.90;;;;;;;13.21;100.00;93554.97;4976207;28;20223;-72
2022/11/17 10:56:48;;;;;;;1999.90;999.90;;;;;;;13.18;100.00;93556.69;4976999;28;20169;-62
2022/11/17 10:59:18;;;;;;;1999.90;999.90;;;;;;;13.10;100.00;93543.78;4976045;28;20211;-62
2022/11/17 11:01:48;;;;;;;1999.90;999.90;;;;;;;13.01;100.00;93547.31;4976713;28;20272;-73
2022/11/17 11:04:32;;;;;;;1999.90;999.90;;;;;;;12.92;100.00;93546.56;4976657;28;20231;-74
2022/11/17 11:07:12;;;;;;;1999.90;999.90;;;;;;;13.28;100.00;93538.19;4976920;28;20184;-74
2022/11/17 11:09:43;;;;;;;1999.90;999.90;;;;;;;13.36;100.00;93533.88;4976283;28;20637;-73
2022/11/17 11:12:17;;;;;;;1999.90;999.90;;;;;;;13.57;100.00;93538.31;4975760;28;20176;-73
2022/11/17 11:14:50;;;;;;;1999.90;999.90;;;;;;;13.69;100.00;93551.03;4976392;28;20202;-73
2022/11/17 11:17:19;;;;;;;1999.90;999.90;;;;;;;13.77;100.00;93551.44;4976677;28;20160;-65
2022/11/17 11:19:54;;;;;;;1999.90;999.90;;;;;;;13.86;100.00;93562.34;4976547;28;20218;-65
2022/11/17 11:22:52;;;;;;;1999.90;999.90;;;;;;;13.94;100.00;93569.75;4976023;28;20210;-64
2022/11/17 11:25:38;;;;;;;1999.90;999.90;;;;;;;14.12;100.00;93580.59;4975276;28;20227;-64
2022/11/17 11:28:21;;;;;;;1999.90;999.90;;;;;;;14.29;100.00;93578.19;4975717;28;20168;-65
2022/11/17 11:31:02;;;;;;;1999.90;999.90;;;;;;;14.42;100.00;93592.44;4976084;28;20219;-65